LPE0021 SBRP-SBVT
Flight info
| Callsign | LPE0021 |
|---|---|
| Flight time | 1h 10m |
| Altitude | 37000 |
| Route | IVSUT DCT NITLU UZ16 EVPAD UZ35 KIGOK |
| Aircraft | A320/M-SDE3FGHIRWY/LB1 |
Departure
| Time | 2026-04-26 06:48 |
|---|---|
| Airport | Leite Lopes Airport (SBRP) |
Arrival
| Time | 2026-04-26 07:59 |
|---|---|
| Airport | Eurico de Aguiar Salles International Airport (SBVT) |
| Time | Latitude | Longitude | Altitude | Speed | Heading |
|---|---|---|---|---|---|
| 2026-04-26 06:14 | -21.13895 | -47.77505 | 1821 ft | 0 kts | 72° |
| 2026-04-26 06:38 | -21.13896 | -47.77510 | 1821 ft | 2 kts | 72° |
| 2026-04-26 06:38 | -21.13911 | -47.77540 | 1821 ft | 3 kts | 28° |
| 2026-04-26 06:38 | -21.13916 | -47.77541 | 1821 ft | 0 kts | 340° |
| 2026-04-26 06:40 | -21.13910 | -47.77543 | 1821 ft | 1 kts | 341° |
| 2026-04-26 06:40 | -21.13890 | -47.77548 | 1821 ft | 3 kts | 353° |
| 2026-04-26 06:40 | -21.13873 | -47.77539 | 1821 ft | 0 kts | 83° |
| 2026-04-26 06:40 | -21.13872 | -47.77534 | 1821 ft | 1 kts | 79° |
| 2026-04-26 06:41 | -21.13870 | -47.77523 | 1821 ft | 2 kts | 78° |
| 2026-04-26 06:41 | -21.13866 | -47.77505 | 1821 ft | 2 kts | 75° |
| 2026-04-26 06:41 | -21.13857 | -47.77482 | 1821 ft | 4 kts | 63° |
| 2026-04-26 06:41 | -21.13833 | -47.77460 | 1821 ft | 5 kts | 20° |
| 2026-04-26 06:42 | -21.13793 | -47.77462 | 1820 ft | 6 kts | 347° |
| 2026-04-26 06:42 | -21.13738 | -47.77478 | 1820 ft | 9 kts | 343° |
| 2026-04-26 06:42 | -21.13671 | -47.77500 | 1819 ft | 10 kts | 342° |
| 2026-04-26 06:42 | -21.13593 | -47.77526 | 1819 ft | 12 kts | 342° |
| 2026-04-26 06:43 | -21.13503 | -47.77556 | 1818 ft | 14 kts | 343° |
| 2026-04-26 06:43 | -21.13403 | -47.77587 | 1817 ft | 15 kts | 343° |
| 2026-04-26 06:43 | -21.13295 | -47.77622 | 1816 ft | 16 kts | 343° |
| 2026-04-26 06:43 | -21.13182 | -47.77659 | 1815 ft | 17 kts | 342° |
| 2026-04-26 06:44 | -21.13061 | -47.77697 | 1815 ft | 18 kts | 344° |
| 2026-04-26 06:44 | -21.12938 | -47.77736 | 1814 ft | 18 kts | 342° |
| 2026-04-26 06:44 | -21.12811 | -47.77777 | 1813 ft | 19 kts | 343° |
| 2026-04-26 06:44 | -21.12685 | -47.77818 | 1813 ft | 18 kts | 346° |
| 2026-04-26 06:45 | -21.12590 | -47.77777 | 1812 ft | 0 kts | 45° |
| 2026-04-26 06:46 | -21.12586 | -47.77772 | 1812 ft | 1 kts | 45° |
| 2026-04-26 06:46 | -21.12573 | -47.77759 | 1812 ft | 3 kts | 44° |
| 2026-04-26 06:46 | -21.12551 | -47.77737 | 1812 ft | 5 kts | 43° |
| 2026-04-26 06:46 | -21.12532 | -47.77704 | 1812 ft | 5 kts | 100° |
| 2026-04-26 06:47 | -21.12551 | -47.77688 | 1812 ft | 3 kts | 148° |
| 2026-04-26 06:47 | -21.12567 | -47.77681 | 1812 ft | 0 kts | 160° |
| 2026-04-26 06:47 | -21.12601 | -47.77668 | 1812 ft | 32 kts | 162° |
| 2026-04-26 06:47 | -21.13117 | -47.77502 | 1815 ft | 119 kts | 163° |
| 2026-04-26 06:48 | -21.14140 | -47.77180 | 1996 ft | 173 kts | 164° |
| 2026-04-26 06:48 | -21.15277 | -47.76809 | 2855 ft | 176 kts | 161° |
| 2026-04-26 06:48 | -21.16399 | -47.76322 | 3794 ft | 172 kts | 148° |
| 2026-04-26 06:48 | -21.17411 | -47.75628 | 4366 ft | 183 kts | 144° |
| 2026-04-26 06:49 | -21.18418 | -47.74710 | 4858 ft | 199 kts | 122° |
| 2026-04-26 06:49 | -21.18772 | -47.73267 | 5354 ft | 213 kts | 79° |
| 2026-04-26 06:49 | -21.18265 | -47.71724 | 5911 ft | 228 kts | 65° |
| 2026-04-26 06:49 | -21.17625 | -47.70092 | 6460 ft | 246 kts | 69° |
| 2026-04-26 06:50 | -21.17074 | -47.68290 | 6999 ft | 264 kts | 74° |
| 2026-04-26 06:50 | -21.16610 | -47.66319 | 7526 ft | 282 kts | 77° |
| 2026-04-26 06:50 | -21.16202 | -47.64248 | 8223 ft | 291 kts | 79° |
| 2026-04-26 06:50 | -21.15814 | -47.62113 | 9054 ft | 294 kts | 80° |
| 2026-04-26 06:51 | -21.15433 | -47.59951 | 9853 ft | 297 kts | 80° |
| 2026-04-26 06:51 | -21.14576 | -47.55541 | 11151 ft | 313 kts | 75° |
| 2026-04-26 06:51 | -21.13914 | -47.53320 | 11834 ft | 317 kts | 70° |
| 2026-04-26 06:52 | -21.13133 | -47.51114 | 12545 ft | 319 kts | 69° |
| 2026-04-26 06:52 | -21.12328 | -47.48888 | 13232 ft | 322 kts | 68° |
| 2026-04-26 06:52 | -21.11521 | -47.46661 | 13875 ft | 324 kts | 68° |
| 2026-04-26 06:52 | -21.10700 | -47.44397 | 14457 ft | 329 kts | 68° |
| 2026-04-26 06:53 | -21.09864 | -47.42085 | 15014 ft | 334 kts | 68° |
| 2026-04-26 06:53 | -21.09033 | -47.39784 | 15553 ft | 338 kts | 68° |
| 2026-04-26 06:53 | -21.08179 | -47.37421 | 16077 ft | 343 kts | 68° |
| 2026-04-26 06:53 | -21.07312 | -47.35021 | 16593 ft | 347 kts | 68° |
| 2026-04-26 06:54 | -21.06438 | -47.32601 | 17078 ft | 351 kts | 68° |
| 2026-04-26 06:54 | -21.05549 | -47.30138 | 17555 ft | 356 kts | 68° |
| 2026-04-26 06:54 | -21.04646 | -47.27637 | 18034 ft | 359 kts | 68° |
| 2026-04-26 06:54 | -21.03755 | -47.25172 | 18521 ft | 362 kts | 68° |
| 2026-04-26 06:55 | -21.02848 | -47.22660 | 18999 ft | 364 kts | 68° |
| 2026-04-26 06:55 | -21.01926 | -47.20115 | 19455 ft | 367 kts | 67° |
| 2026-04-26 06:55 | -21.00997 | -47.17549 | 19912 ft | 370 kts | 68° |
| 2026-04-26 06:55 | -21.00068 | -47.14983 | 20355 ft | 372 kts | 67° |
| 2026-04-26 06:56 | -20.99138 | -47.12416 | 20795 ft | 375 kts | 67° |
| 2026-04-26 06:56 | -20.98193 | -47.09810 | 21233 ft | 377 kts | 67° |
| 2026-04-26 06:56 | -20.97245 | -47.07199 | 21637 ft | 380 kts | 68° |
| 2026-04-26 06:56 | -20.96291 | -47.04572 | 22049 ft | 382 kts | 68° |
| 2026-04-26 06:57 | -20.95323 | -47.01909 | 22458 ft | 385 kts | 68° |
| 2026-04-26 06:57 | -20.94353 | -46.99239 | 22872 ft | 388 kts | 68° |
| 2026-04-26 06:57 | -20.93375 | -46.96548 | 23286 ft | 390 kts | 68° |
| 2026-04-26 06:57 | -20.92383 | -46.93819 | 23704 ft | 393 kts | 68° |
| 2026-04-26 06:58 | -20.91396 | -46.91106 | 24137 ft | 395 kts | 68° |
| 2026-04-26 06:58 | -20.90397 | -46.88361 | 24560 ft | 398 kts | 68° |
| 2026-04-26 06:58 | -20.89388 | -46.85592 | 24977 ft | 400 kts | 68° |
| 2026-04-26 06:58 | -20.88377 | -46.82818 | 25386 ft | 403 kts | 68° |
| 2026-04-26 06:59 | -20.87349 | -46.80001 | 25788 ft | 406 kts | 68° |
| 2026-04-26 06:59 | -20.86322 | -46.77189 | 26189 ft | 408 kts | 68° |
| 2026-04-26 06:59 | -20.85285 | -46.74350 | 26594 ft | 411 kts | 68° |
| 2026-04-26 06:59 | -20.84243 | -46.71498 | 26978 ft | 414 kts | 68° |
| 2026-04-26 07:00 | -20.83202 | -46.68650 | 27350 ft | 417 kts | 68° |
| 2026-04-26 07:00 | -20.82146 | -46.65765 | 27729 ft | 419 kts | 68° |
| 2026-04-26 07:00 | -20.81083 | -46.62864 | 28119 ft | 421 kts | 68° |
| 2026-04-26 07:00 | -20.80009 | -46.59933 | 28493 ft | 424 kts | 68° |
| 2026-04-26 07:01 | -20.78936 | -46.57005 | 28850 ft | 427 kts | 68° |
| 2026-04-26 07:01 | -20.77852 | -46.54047 | 29226 ft | 429 kts | 68° |
| 2026-04-26 07:01 | -20.76761 | -46.51073 | 29602 ft | 432 kts | 68° |
| 2026-04-26 07:01 | -20.75676 | -46.48116 | 29971 ft | 434 kts | 68° |
| 2026-04-26 07:02 | -20.74565 | -46.45094 | 30340 ft | 436 kts | 68° |
| 2026-04-26 07:02 | -20.73459 | -46.42088 | 30694 ft | 438 kts | 68° |
| 2026-04-26 07:02 | -20.72376 | -46.39040 | 31054 ft | 440 kts | 70° |
| 2026-04-26 07:02 | -20.71446 | -46.35927 | 31402 ft | 443 kts | 73° |
| 2026-04-26 07:03 | -20.70692 | -46.32731 | 31738 ft | 445 kts | 77° |
| 2026-04-26 07:03 | -20.70131 | -46.29499 | 32045 ft | 448 kts | 81° |
| 2026-04-26 07:03 | -20.69757 | -46.26189 | 32348 ft | 450 kts | 84° |
| 2026-04-26 07:03 | -20.69490 | -46.22873 | 32650 ft | 452 kts | 84° |
| 2026-04-26 07:04 | -20.69237 | -46.19537 | 32954 ft | 454 kts | 84° |
| 2026-04-26 07:04 | -20.68981 | -46.16174 | 33263 ft | 455 kts | 84° |
| 2026-04-26 07:04 | -20.68719 | -46.12800 | 33550 ft | 457 kts | 84° |
| 2026-04-26 07:04 | -20.68452 | -46.09416 | 33835 ft | 459 kts | 84° |
| 2026-04-26 07:05 | -20.68180 | -46.06004 | 34115 ft | 461 kts | 84° |
| 2026-04-26 07:05 | -20.67905 | -46.02582 | 34382 ft | 463 kts | 84° |
| 2026-04-26 07:05 | -20.67631 | -45.99186 | 34642 ft | 465 kts | 84° |
| 2026-04-26 07:05 | -20.67353 | -45.95749 | 34903 ft | 466 kts | 84° |
| 2026-04-26 07:06 | -20.67074 | -45.92325 | 35168 ft | 467 kts | 84° |
| 2026-04-26 07:06 | -20.66793 | -45.88867 | 35505 ft | 467 kts | 84° |
| 2026-04-26 07:06 | -20.66510 | -45.85403 | 35799 ft | 467 kts | 84° |
| 2026-04-26 07:06 | -20.66227 | -45.81958 | 36025 ft | 468 kts | 84° |
| 2026-04-26 07:07 | -20.65946 | -45.78534 | 36229 ft | 469 kts | 84° |
| 2026-04-26 07:07 | -20.65661 | -45.75068 | 36428 ft | 470 kts | 84° |
| 2026-04-26 07:07 | -20.65374 | -45.71585 | 36635 ft | 471 kts | 84° |
| 2026-04-26 07:07 | -20.65088 | -45.68132 | 36826 ft | 472 kts | 84° |
| 2026-04-26 07:08 | -20.64797 | -45.64631 | 37008 ft | 472 kts | 84° |
| 2026-04-26 07:08 | -20.64506 | -45.61133 | 37106 ft | 474 kts | 84° |
| 2026-04-26 07:08 | -20.63925 | -45.54182 | 37115 ft | 474 kts | 84° |
| 2026-04-26 07:09 | -20.63338 | -45.47169 | 37121 ft | 475 kts | 84° |
| 2026-04-26 07:09 | -20.62749 | -45.40187 | 37124 ft | 475 kts | 84° |
| 2026-04-26 07:11 | -20.61259 | -45.22645 | 37129 ft | 475 kts | 84° |
| 2026-04-26 07:11 | -20.60658 | -45.15636 | 37129 ft | 474 kts | 84° |
| 2026-04-26 07:12 | -20.60055 | -45.08650 | 37126 ft | 474 kts | 84° |
| 2026-04-26 07:12 | -20.59453 | -45.01693 | 37127 ft | 474 kts | 84° |
| 2026-04-26 07:13 | -20.58843 | -44.94682 | 37128 ft | 474 kts | 84° |
| 2026-04-26 07:13 | -20.58233 | -44.87690 | 37131 ft | 475 kts | 84° |
| 2026-04-26 07:14 | -20.57620 | -44.80702 | 37127 ft | 474 kts | 84° |
| 2026-04-26 07:14 | -20.57003 | -44.73709 | 37130 ft | 474 kts | 84° |
| 2026-04-26 07:15 | -20.56380 | -44.66678 | 37131 ft | 474 kts | 84° |
| 2026-04-26 07:15 | -20.55759 | -44.59697 | 37130 ft | 474 kts | 84° |
| 2026-04-26 07:16 | -20.55137 | -44.52748 | 37131 ft | 474 kts | 84° |
| 2026-04-26 07:16 | -20.54510 | -44.45767 | 37130 ft | 474 kts | 84° |
| 2026-04-26 07:17 | -20.53881 | -44.38805 | 37130 ft | 474 kts | 84° |
| 2026-04-26 07:17 | -20.53245 | -44.31786 | 37127 ft | 474 kts | 83° |
| 2026-04-26 07:18 | -20.52502 | -44.23644 | 37123 ft | 474 kts | 84° |
| 2026-04-26 07:18 | -20.51967 | -44.17806 | 37123 ft | 474 kts | 84° |
| 2026-04-26 07:19 | -20.50750 | -44.09767 | 37124 ft | 473 kts | 75° |
| 2026-04-26 07:19 | -20.48821 | -44.03100 | 37124 ft | 473 kts | 68° |
| 2026-04-26 07:20 | -20.46097 | -43.96750 | 37124 ft | 471 kts | 60° |
| 2026-04-26 07:20 | -20.43514 | -43.91654 | 37127 ft | 470 kts | 60° |
| 2026-04-26 07:21 | -20.39864 | -43.84481 | 37124 ft | 470 kts | 60° |
| 2026-04-26 07:21 | -20.36778 | -43.78388 | 37124 ft | 470 kts | 60° |
| 2026-04-26 07:22 | -20.33674 | -43.72252 | 37126 ft | 470 kts | 60° |
| 2026-04-26 07:22 | -20.30573 | -43.66128 | 37124 ft | 470 kts | 60° |
| 2026-04-26 07:23 | -20.27472 | -43.60010 | 37121 ft | 470 kts | 60° |
| 2026-04-26 07:23 | -20.24902 | -43.54945 | 37121 ft | 469 kts | 60° |
| 2026-04-26 07:24 | -20.21269 | -43.47794 | 37120 ft | 469 kts | 60° |
| 2026-04-26 07:24 | -20.18173 | -43.41705 | 37112 ft | 469 kts | 60° |
| 2026-04-26 07:25 | -20.15062 | -43.35592 | 37107 ft | 470 kts | 60° |
| 2026-04-26 07:25 | -20.11960 | -43.29504 | 37098 ft | 469 kts | 60° |
| 2026-04-26 07:26 | -20.08854 | -43.23414 | 37091 ft | 468 kts | 60° |
| 2026-04-26 07:26 | -20.05744 | -43.17323 | 37089 ft | 468 kts | 60° |
| 2026-04-26 07:27 | -20.02639 | -43.11251 | 37093 ft | 468 kts | 60° |
| 2026-04-26 07:27 | -19.99602 | -43.05116 | 37097 ft | 469 kts | 65° |
| 2026-04-26 07:28 | -19.97507 | -42.98593 | 37102 ft | 470 kts | 77° |
| 2026-04-26 07:28 | -19.96660 | -42.91728 | 37091 ft | 471 kts | 88° |
| 2026-04-26 07:29 | -19.96914 | -42.85944 | 37079 ft | 471 kts | 96° |
| 2026-04-26 07:29 | -19.97773 | -42.77919 | 37062 ft | 470 kts | 96° |
| 2026-04-26 07:30 | -19.98496 | -42.71040 | 37053 ft | 470 kts | 96° |
| 2026-04-26 07:30 | -19.99196 | -42.64110 | 37053 ft | 470 kts | 96° |
| 2026-04-26 07:31 | -19.99884 | -42.57225 | 37052 ft | 471 kts | 96° |
| 2026-04-26 07:31 | -20.00681 | -42.50365 | 37055 ft | 470 kts | 99° |
| 2026-04-26 07:32 | -20.01713 | -42.43511 | 37063 ft | 470 kts | 99° |
| 2026-04-26 07:32 | -20.02745 | -42.36670 | 36922 ft | 468 kts | 99° |
| 2026-04-26 07:32 | -20.03259 | -42.33234 | 36111 ft | 471 kts | 99° |
| 2026-04-26 07:33 | -20.03774 | -42.29776 | 34930 ft | 478 kts | 99° |
| 2026-04-26 07:33 | -20.04297 | -42.26256 | 33888 ft | 481 kts | 100° |
| 2026-04-26 07:33 | -20.04755 | -42.22793 | 33333 ft | 475 kts | 97° |
| 2026-04-26 07:33 | -20.05063 | -42.19281 | 32811 ft | 468 kts | 95° |
| 2026-04-26 07:34 | -20.05204 | -42.15891 | 32408 ft | 461 kts | 92° |
| 2026-04-26 07:34 | -20.05218 | -42.12481 | 32071 ft | 451 kts | 91° |
| 2026-04-26 07:34 | -20.05209 | -42.09160 | 31639 ft | 446 kts | 91° |
| 2026-04-26 07:34 | -20.05196 | -42.05904 | 31136 ft | 443 kts | 91° |
| 2026-04-26 07:35 | -20.05184 | -42.02640 | 30571 ft | 441 kts | 91° |
| 2026-04-26 07:35 | -20.05174 | -41.99395 | 30078 ft | 437 kts | 91° |
| 2026-04-26 07:35 | -20.05164 | -41.96183 | 29639 ft | 432 kts | 91° |
| 2026-04-26 07:35 | -20.05155 | -41.93033 | 29109 ft | 430 kts | 91° |
| 2026-04-26 07:36 | -20.05147 | -41.89872 | 28622 ft | 427 kts | 91° |
| 2026-04-26 07:36 | -20.05138 | -41.86733 | 28072 ft | 425 kts | 91° |
| 2026-04-26 07:36 | -20.05129 | -41.83599 | 27643 ft | 420 kts | 91° |
| 2026-04-26 07:36 | -20.05119 | -41.80505 | 27273 ft | 413 kts | 91° |
| 2026-04-26 07:37 | -20.05108 | -41.77464 | 26914 ft | 410 kts | 91° |
| 2026-04-26 07:37 | -20.05097 | -41.74471 | 26554 ft | 408 kts | 91° |
| 2026-04-26 07:37 | -20.05087 | -41.71481 | 26166 ft | 405 kts | 91° |
| 2026-04-26 07:37 | -20.05075 | -41.68481 | 25789 ft | 403 kts | 90° |
| 2026-04-26 07:38 | -20.05063 | -41.65505 | 25410 ft | 400 kts | 90° |
| 2026-04-26 07:38 | -20.05051 | -41.62546 | 25031 ft | 397 kts | 90° |
| 2026-04-26 07:38 | -20.05037 | -41.59624 | 24683 ft | 394 kts | 90° |
| 2026-04-26 07:38 | -20.05024 | -41.56747 | 24325 ft | 392 kts | 90° |
| 2026-04-26 07:39 | -20.05010 | -41.53858 | 23963 ft | 389 kts | 90° |
| 2026-04-26 07:39 | -20.04997 | -41.51009 | 23621 ft | 386 kts | 90° |
| 2026-04-26 07:39 | -20.04982 | -41.48162 | 23300 ft | 384 kts | 90° |
| 2026-04-26 07:39 | -20.04967 | -41.45351 | 22976 ft | 381 kts | 90° |
| 2026-04-26 07:40 | -20.04952 | -41.42513 | 22632 ft | 378 kts | 90° |
| 2026-04-26 07:40 | -20.04937 | -41.39738 | 22273 ft | 376 kts | 90° |
| 2026-04-26 07:40 | -20.04921 | -41.36958 | 21927 ft | 373 kts | 90° |
| 2026-04-26 07:40 | -20.04905 | -41.34233 | 21556 ft | 371 kts | 90° |
| 2026-04-26 07:41 | -20.04889 | -41.31509 | 21165 ft | 368 kts | 90° |
| 2026-04-26 07:41 | -20.04872 | -41.28765 | 20741 ft | 367 kts | 89° |
| 2026-04-26 07:41 | -20.04854 | -41.26065 | 20308 ft | 366 kts | 89° |
| 2026-04-26 07:41 | -20.04837 | -41.23397 | 19867 ft | 365 kts | 89° |
| 2026-04-26 07:42 | -20.04820 | -41.20693 | 19428 ft | 364 kts | 89° |
| 2026-04-26 07:42 | -20.04801 | -41.18016 | 18997 ft | 363 kts | 89° |
| 2026-04-26 07:42 | -20.04782 | -41.15311 | 18574 ft | 361 kts | 89° |
| 2026-04-26 07:42 | -20.04763 | -41.12680 | 18166 ft | 360 kts | 89° |
| 2026-04-26 07:43 | -20.04743 | -41.10019 | 17743 ft | 359 kts | 90° |
| 2026-04-26 07:43 | -20.04724 | -41.07355 | 17318 ft | 357 kts | 90° |
| 2026-04-26 07:43 | -20.04704 | -41.04747 | 16923 ft | 356 kts | 90° |
| 2026-04-26 07:43 | -20.04684 | -41.02107 | 16551 ft | 353 kts | 90° |
| 2026-04-26 07:44 | -20.04663 | -40.99497 | 16176 ft | 350 kts | 90° |
| 2026-04-26 07:44 | -20.04643 | -40.96922 | 15807 ft | 347 kts | 90° |
| 2026-04-26 07:44 | -20.04622 | -40.94359 | 15451 ft | 344 kts | 90° |
| 2026-04-26 07:44 | -20.04601 | -40.91813 | 15100 ft | 341 kts | 90° |
| 2026-04-26 07:45 | -20.04580 | -40.89282 | 14751 ft | 338 kts | 90° |
| 2026-04-26 07:45 | -20.04558 | -40.86778 | 14393 ft | 335 kts | 90° |
| 2026-04-26 07:45 | -20.04538 | -40.84323 | 14037 ft | 332 kts | 90° |
| 2026-04-26 07:45 | -20.04516 | -40.81892 | 13668 ft | 330 kts | 90° |
| 2026-04-26 07:46 | -20.04494 | -40.79442 | 13303 ft | 328 kts | 90° |
| 2026-04-26 07:46 | -20.04472 | -40.77022 | 12946 ft | 325 kts | 90° |
| 2026-04-26 07:46 | -20.04449 | -40.74625 | 12568 ft | 323 kts | 90° |
| 2026-04-26 07:46 | -20.04426 | -40.72268 | 12185 ft | 321 kts | 90° |
| 2026-04-26 07:47 | -20.04403 | -40.69916 | 11814 ft | 318 kts | 91° |
| 2026-04-26 07:47 | -20.04380 | -40.67550 | 11427 ft | 316 kts | 91° |
| 2026-04-26 07:47 | -20.04358 | -40.65226 | 11030 ft | 314 kts | 91° |
| 2026-04-26 07:47 | -20.04335 | -40.62928 | 10643 ft | 312 kts | 91° |
| 2026-04-26 07:48 | -20.04312 | -40.60619 | 10255 ft | 309 kts | 91° |
| 2026-04-26 07:48 | -20.04289 | -40.58348 | 10006 ft | 301 kts | 91° |
| 2026-04-26 07:48 | -20.04265 | -40.56166 | 9766 ft | 294 kts | 92° |
| 2026-04-26 07:48 | -20.04243 | -40.54016 | 9393 ft | 293 kts | 92° |
| 2026-04-26 07:49 | -20.04222 | -40.51852 | 9017 ft | 291 kts | 91° |
| 2026-04-26 07:49 | -20.04201 | -40.49698 | 8648 ft | 289 kts | 91° |
| 2026-04-26 07:49 | -20.04179 | -40.47569 | 8289 ft | 287 kts | 91° |
| 2026-04-26 07:50 | -20.04133 | -40.43344 | 7561 ft | 284 kts | 91° |
| 2026-04-26 07:50 | -20.04110 | -40.41236 | 7195 ft | 283 kts | 91° |
| 2026-04-26 07:50 | -20.04087 | -40.39149 | 6836 ft | 281 kts | 91° |
| 2026-04-26 07:50 | -20.04063 | -40.37073 | 6484 ft | 280 kts | 91° |
| 2026-04-26 07:51 | -20.04040 | -40.35021 | 6136 ft | 278 kts | 91° |
| 2026-04-26 07:51 | -20.04016 | -40.32975 | 5794 ft | 277 kts | 90° |
| 2026-04-26 07:51 | -20.03994 | -40.30920 | 5430 ft | 276 kts | 89° |
| 2026-04-26 07:51 | -20.03970 | -40.28885 | 5109 ft | 273 kts | 89° |
| 2026-04-26 07:52 | -20.03946 | -40.26880 | 4790 ft | 271 kts | 89° |
| 2026-04-26 07:52 | -20.03921 | -40.24876 | 4455 ft | 270 kts | 89° |
| 2026-04-26 07:52 | -20.03898 | -40.22887 | 4207 ft | 264 kts | 88° |
| 2026-04-26 07:52 | -20.03873 | -40.20979 | 4175 ft | 250 kts | 88° |
| 2026-04-26 07:53 | -20.03852 | -40.19205 | 4129 ft | 237 kts | 88° |
| 2026-04-26 07:53 | -20.03956 | -40.17501 | 4048 ft | 227 kts | 108° |
| 2026-04-26 07:53 | -20.04887 | -40.16200 | 4012 ft | 224 kts | 151° |
| 2026-04-26 07:53 | -20.06391 | -40.15852 | 3805 ft | 223 kts | 192° |
| 2026-04-26 07:54 | -20.07764 | -40.16505 | 3597 ft | 215 kts | 216° |
| 2026-04-26 07:54 | -20.08977 | -40.17431 | 3389 ft | 211 kts | 218° |
| 2026-04-26 07:54 | -20.10149 | -40.18315 | 3188 ft | 201 kts | 217° |
| 2026-04-26 07:54 | -20.11287 | -40.19115 | 3114 ft | 189 kts | 215° |
| 2026-04-26 07:55 | -20.12354 | -40.19830 | 2978 ft | 172 kts | 214° |
| 2026-04-26 07:55 | -20.13325 | -40.20470 | 2829 ft | 159 kts | 215° |
| 2026-04-26 07:55 | -20.14251 | -40.21074 | 2634 ft | 150 kts | 214° |
| 2026-04-26 07:55 | -20.15190 | -40.21683 | 2510 ft | 167 kts | 215° |
| 2026-04-26 07:56 | -20.16139 | -40.22321 | 2334 ft | 156 kts | 216° |
| 2026-04-26 07:56 | -20.17041 | -40.22932 | 2016 ft | 155 kts | 216° |
| 2026-04-26 07:56 | -20.17946 | -40.23556 | 1665 ft | 156 kts | 216° |
| 2026-04-26 07:56 | -20.18859 | -40.24176 | 1344 ft | 155 kts | 214° |
| 2026-04-26 07:57 | -20.19884 | -40.24809 | 1212 ft | 169 kts | 212° |
| 2026-04-26 07:57 | -20.20848 | -40.25436 | 1031 ft | 157 kts | 214° |
| 2026-04-26 07:57 | -20.21807 | -40.26070 | 850 ft | 158 kts | 212° |
| 2026-04-26 07:57 | -20.22722 | -40.26658 | 598 ft | 152 kts | 213° |
| 2026-04-26 07:58 | -20.23632 | -40.27261 | 446 ft | 156 kts | 213° |
| 2026-04-26 07:58 | -20.24530 | -40.27860 | 222 ft | 147 kts | 214° |
| 2026-04-26 07:58 | -20.25383 | -40.28417 | 19 ft | 138 kts | 214° |
| 2026-04-26 07:58 | -20.26066 | -40.28864 | 14 ft | 74 kts | 212° |
| 2026-04-26 07:59 | -20.26377 | -40.29064 | 14 ft | 21 kts | 212° |
| 2026-04-26 07:59 | -20.26409 | -40.29101 | 14 ft | 1 kts | 301° |
| 2026-04-26 07:59 | -20.26398 | -40.29113 | 14 ft | 2 kts | 326° |
| 2026-04-26 07:59 | -20.26390 | -40.29117 | 14 ft | 1 kts | 338° |
| 2026-04-26 08:00 | -20.26372 | -40.29124 | 14 ft | 0 kts | 339° |
| 2026-04-26 08:00 | -20.26371 | -40.29124 | 14 ft | 0 kts | 339° |
| 2026-04-26 08:00 | -20.26362 | -40.29127 | 14 ft | 2 kts | 345° |
| 2026-04-26 08:01 | -20.26342 | -40.29131 | 14 ft | 3 kts | 350° |
| 2026-04-26 08:01 | -20.26311 | -40.29137 | 14 ft | 5 kts | 349° |
| 2026-04-26 08:01 | -20.26268 | -40.29144 | 14 ft | 6 kts | 355° |
| 2026-04-26 08:01 | -20.26216 | -40.29137 | 14 ft | 8 kts | 18° |
| 2026-04-26 08:02 | -20.26160 | -40.29105 | 14 ft | 9 kts | 33° |
| 2026-04-26 08:02 | -20.26098 | -40.29063 | 14 ft | 11 kts | 32° |
| 2026-04-26 08:02 | -20.26028 | -40.29017 | 14 ft | 12 kts | 32° |
| 2026-04-26 08:02 | -20.25950 | -40.28964 | 14 ft | 13 kts | 32° |
| 2026-04-26 08:03 | -20.25877 | -40.28916 | 14 ft | 9 kts | 32° |
| 2026-04-26 08:03 | -20.25828 | -40.28887 | 14 ft | 5 kts | 358° |
| 2026-04-26 08:03 | -20.25805 | -40.28918 | 14 ft | 0 kts | 302° |
| 2026-04-26 08:03 | -20.25804 | -40.28920 | 14 ft | 0 kts | 301° |